createdAt,value
2023-01-29T00:01:48.625Z,102036.47
2023-01-29T00:04:58.736Z,102041.88
2023-01-29T00:08:04.819Z,102041.72
2023-01-29T00:11:11.100Z,102048.22
2023-01-29T00:14:16.863Z,102047.53
2023-01-29T00:17:22.170Z,102048.22
2023-01-29T00:20:27.855Z,102043.22
2023-01-29T00:23:33.442Z,102043.78
2023-01-29T00:26:39.755Z,102041.84
2023-01-29T00:30:02.672Z,102041.00
2023-01-29T00:33:08.006Z,102041.84
2023-01-29T00:36:16.157Z,102043.63
2023-01-29T00:39:31.476Z,102044.88
2023-01-29T00:43:04.260Z,102042.59
2023-01-29T00:46:10.912Z,102045.13
2023-01-29T00:49:16.418Z,102051.91
2023-01-29T00:52:24.895Z,102050.09
2023-01-29T00:55:30.060Z,102052.88
2023-01-29T00:58:35.679Z,102058.38
2023-01-29T01:01:59.307Z,102058.81
2023-01-29T01:05:08.086Z,102064.78
2023-01-29T01:08:32.769Z,102061.47
2023-01-29T01:11:37.964Z,102060.75
2023-01-29T01:14:43.512Z,102069.09
2023-01-29T01:17:53.141Z,102068.97
2023-01-29T01:20:59.812Z,102062.59
2023-01-29T01:24:06.347Z,102060.25
2023-01-29T01:27:13.518Z,102064.56
2023-01-29T01:30:19.142Z,102067.28
2023-01-29T01:33:25.064Z,102068.69
2023-01-29T01:36:32.668Z,102068.00
2023-01-29T01:39:38.008Z,102070.34
2023-01-29T01:42:44.478Z,102066.88
2023-01-29T01:45:50.154Z,102063.16
2023-01-29T01:49:02.306Z,102071.59
2023-01-29T01:52:09.154Z,102069.13
2023-01-29T01:55:19.539Z,102070.63
2023-01-29T01:58:30.864Z,102069.94
2023-01-29T02:01:36.412Z,102067.56
2023-01-29T02:05:06.766Z,102071.47
2023-01-29T02:08:30.922Z,102064.56
2023-01-29T02:11:36.990Z,102074.22
2023-01-29T02:14:43.841Z,102068.69
2023-01-29T02:17:49.046Z,102068.69
2023-01-29T02:21:11.034Z,102072.94
2023-01-29T02:24:54.963Z,102067.47
2023-01-29T02:28:37.229Z,102067.03
2023-01-29T02:31:51.944Z,102070.34
2023-01-29T02:35:32.255Z,102079.19
2023-01-29T02:38:48.002Z,102081.69
2023-01-29T02:42:11.990Z,102082.38
2023-01-29T02:45:33.270Z,102081.81
2023-01-29T02:49:06.670Z,102082.19
2023-01-29T02:52:34.064Z,102089.38
2023-01-29T02:55:57.670Z,102080.16
2023-01-29T02:59:12.725Z,102084.44
2023-01-29T03:02:26.295Z,102091.06
2023-01-29T03:05:45.080Z,102091.91
2023-01-29T03:09:11.105Z,102099.22
2023-01-29T03:12:34.404Z,102091.91
2023-01-29T03:15:48.597Z,102099.13
2023-01-29T03:19:37.017Z,102096.31
2023-01-29T03:22:57.239Z,102086.09
2023-01-29T03:26:21.350Z,102087.75
2023-01-29T03:29:45.474Z,102082.50
2023-01-29T03:32:52.355Z,102086.06
2023-01-29T03:36:07.513Z,102086.94
2023-01-29T03:39:15.779Z,102095.34
2023-01-29T03:42:35.761Z,102082.78
2023-01-29T03:46:22.677Z,102087.75
2023-01-29T03:49:33.048Z,102088.97
2023-01-29T03:53:07.072Z,102095.91
2023-01-29T03:56:37.839Z,102099.59
2023-01-29T04:00:08.375Z,102103.06
2023-01-29T04:03:49.286Z,102108.72
2023-01-29T04:07:03.493Z,102102.81
2023-01-29T04:10:14.590Z,102102.38
2023-01-29T04:13:21.814Z,102106.41
2023-01-29T04:16:35.228Z,102110.28
2023-01-29T04:20:04.807Z,102103.34
2023-01-29T04:23:27.102Z,102107.94
2023-01-29T04:27:21.558Z,102115.38
2023-01-29T04:30:31.009Z,102111.97
2023-01-29T04:34:04.281Z,102109.19
2023-01-29T04:37:20.802Z,102100.22
2023-01-29T04:40:33.139Z,102103.09
2023-01-29T04:43:48.288Z,102097.22
2023-01-29T04:47:14.777Z,102107.09
2023-01-29T04:50:34.246Z,102106.00
2023-01-29T04:53:55.783Z,102115.56
2023-01-29T04:57:12.550Z,102107.94
2023-01-29T05:00:43.541Z,102105.31
2023-01-29T05:03:53.211Z,102105.84
2023-01-29T05:07:04.690Z,102107.81
2023-01-29T05:10:13.446Z,102106.59
2023-01-29T05:13:21.359Z,102103.00
2023-01-29T05:16:30.948Z,102106.44
2023-01-29T05:19:36.314Z,102108.53
2023-01-29T05:22:42.839Z,102119.19
2023-01-29T05:25:50.191Z,102118.50
2023-01-29T05:28:56.276Z,102129.50
2023-01-29T05:32:02.049Z,102128.56
2023-01-29T05:35:07.888Z,102131.72
2023-01-29T05:38:14.314Z,102135.38
2023-01-29T05:41:20.177Z,102129.56
2023-01-29T05:44:25.576Z,102130.06
2023-01-29T05:47:31.440Z,102135.88
2023-01-29T05:50:36.614Z,102128.03
2023-01-29T05:53:41.792Z,102128.44
2023-01-29T05:56:47.056Z,102134.56
2023-01-29T05:59:52.431Z,102138.16
2023-01-29T06:02:59.467Z,102142.16
2023-01-29T06:06:05.259Z,102137.47
2023-01-29T06:09:12.203Z,102137.59
2023-01-29T06:12:17.477Z,102143.13
2023-01-29T06:15:22.646Z,102149.34
2023-01-29T06:18:27.815Z,102161.81
2023-01-29T06:21:32.881Z,102162.38
2023-01-29T06:24:38.148Z,102163.06
2023-01-29T06:27:43.679Z,102161.09
2023-01-29T06:30:48.911Z,102166.38
2023-01-29T06:33:54.216Z,102154.34
2023-01-29T06:36:59.969Z,102155.03
2023-01-29T06:40:05.484Z,102162.66
2023-01-29T06:43:10.428Z,102163.47
2023-01-29T06:46:15.532Z,102164.31
2023-01-29T06:49:21.412Z,102176.91
2023-01-29T06:52:29.507Z,102172.47
2023-01-29T06:55:35.063Z,102182.72
2023-01-29T06:58:40.733Z,102182.44
2023-01-29T07:01:46.076Z,102184.63
2023-01-29T07:04:51.782Z,102192.41
2023-01-29T07:07:57.672Z,102195.59
2023-01-29T07:11:03.429Z,102201.41
2023-01-29T07:14:08.972Z,102204.88
2023-01-29T07:17:14.612Z,102210.69
2023-01-29T07:20:20.118Z,102208.19
2023-01-29T07:23:25.819Z,102219.13
2023-01-29T07:26:31.785Z,102214.81
2023-01-29T07:29:37.580Z,102226.19
2023-01-29T07:32:43.044Z,102230.88
2023-01-29T07:35:48.310Z,102239.63
2023-01-29T07:38:54.069Z,102248.50
2023-01-29T07:41:58.965Z,102251.41
2023-01-29T07:45:07.312Z,102257.34
2023-01-29T07:48:13.622Z,102257.19
2023-01-29T07:51:19.115Z,102265.94
2023-01-29T07:54:24.692Z,102266.34
2023-01-29T07:57:31.094Z,102275.78
2023-01-29T08:00:36.895Z,102278.81
2023-01-29T08:03:41.905Z,102278.25
2023-01-29T08:06:47.088Z,102283.50
2023-01-29T08:09:52.069Z,102287.97
2023-01-29T08:12:58.860Z,102289.91
2023-01-29T08:16:05.024Z,102294.19
2023-01-29T08:19:10.240Z,102292.81
2023-01-29T08:22:16.739Z,102297.94
2023-01-29T08:25:22.828Z,102303.75
2023-01-29T08:28:28.983Z,102304.84
2023-01-29T08:31:35.559Z,102297.78
2023-01-29T08:34:40.959Z,102299.16
2023-01-29T08:37:56.748Z,102300.97
2023-01-29T08:41:02.353Z,102307.31
2023-01-29T08:44:07.990Z,102307.28
2023-01-29T08:47:13.241Z,102309.81
2023-01-29T08:50:19.110Z,102316.59
2023-01-29T08:53:25.230Z,102314.59
2023-01-29T08:56:30.432Z,102315.56
2023-01-29T08:59:35.344Z,102305.84
2023-01-29T09:02:40.748Z,102314.09
2023-01-29T09:05:47.057Z,102318.06
2023-01-29T09:08:52.168Z,102308.84
2023-01-29T09:11:57.348Z,102308.66
2023-01-29T09:15:02.519Z,102316.16
2023-01-29T09:18:07.395Z,102319.16
2023-01-29T09:21:12.548Z,102314.69
2023-01-29T09:24:17.695Z,102310.09
2023-01-29T09:27:22.661Z,102320.44
2023-01-29T09:30:27.898Z,102329.06
2023-01-29T09:33:33.260Z,102333.97
2023-01-29T09:36:38.421Z,102339.09
2023-01-29T09:39:44.024Z,102334.84
2023-01-29T09:42:55.958Z,102341.47
2023-01-29T09:46:08.419Z,102335.50
2023-01-29T09:49:52.472Z,102337.94
2023-01-29T09:53:11.222Z,102336.59
2023-01-29T09:56:21.973Z,102330.16
2023-01-29T09:59:32.755Z,102334.81
2023-01-29T10:02:48.633Z,102331.91
2023-01-29T10:06:22.090Z,102324.09
2023-01-29T10:10:03.287Z,102322.13
2023-01-29T10:13:24.311Z,102321.63
2023-01-29T10:16:41.882Z,102324.50
2023-01-29T10:20:22.521Z,102318.09
2023-01-29T10:23:34.492Z,102321.91
2023-01-29T10:26:41.686Z,102314.00
2023-01-29T10:29:50.864Z,102308.78
2023-01-29T10:33:02.081Z,102292.94
2023-01-29T10:36:13.493Z,102285.84
2023-01-29T10:39:25.004Z,102286.91
2023-01-29T10:42:46.876Z,102286.59
2023-01-29T10:46:23.138Z,102285.97
2023-01-29T10:49:45.787Z,102273.75
2023-01-29T10:53:05.761Z,102270.31
2023-01-29T10:56:30.163Z,102265.84
2023-01-29T11:00:13.636Z,102265.38
2023-01-29T11:03:28.248Z,102251.13
2023-01-29T11:06:36.915Z,102245.03
2023-01-29T11:09:58.198Z,102245.53
2023-01-29T11:13:06.421Z,102240.56
2023-01-29T11:16:12.064Z,102233.75
2023-01-29T11:19:18.079Z,102232.78
2023-01-29T11:22:29.403Z,102229.81
2023-01-29T11:25:34.855Z,102220.03
2023-01-29T11:28:41.551Z,102212.75
2023-01-29T11:31:48.602Z,102202.81
2023-01-29T11:35:20.893Z,102196.84
2023-01-29T11:38:29.369Z,102192.34
2023-01-29T11:41:44.078Z,102181.75
2023-01-29T11:44:50.380Z,102177.91
2023-01-29T11:47:57.396Z,102180.94
2023-01-29T11:51:05.554Z,102167.31
2023-01-29T11:54:20.079Z,102162.16
2023-01-29T11:57:33.981Z,102152.41
2023-01-29T12:00:41.605Z,102140.47
2023-01-29T12:03:53.581Z,102141.78
2023-01-29T12:06:58.917Z,102130.16
2023-01-29T12:10:04.898Z,102128.59
2023-01-29T12:13:22.486Z,102121.16
2023-01-29T12:16:57.212Z,102118.66
2023-01-29T12:20:13.171Z,102118.75
2023-01-29T12:23:36.985Z,102111.97
2023-01-29T12:26:55.764Z,102113.28
2023-01-29T12:30:26.518Z,102113.66
2023-01-29T12:33:57.751Z,102109.06
2023-01-29T12:37:25.478Z,102110.84
2023-01-29T12:40:44.524Z,102110.13
2023-01-29T12:43:58.583Z,102095.41
2023-01-29T12:47:09.000Z,102092.75
2023-01-29T12:50:18.420Z,102085.84
2023-01-29T12:53:57.494Z,102086.34
2023-01-29T12:57:09.010Z,102095.09
2023-01-29T13:00:19.797Z,102098.72
2023-01-29T13:03:25.841Z,102095.56
2023-01-29T13:06:36.738Z,102076.28
2023-01-29T13:09:51.116Z,102077.00
2023-01-29T13:13:04.471Z,102072.34
2023-01-29T13:16:13.469Z,102083.34
2023-01-29T13:19:33.505Z,102086.84
2023-01-29T13:22:41.465Z,102072.63
2023-01-29T13:25:49.859Z,102065.66
2023-01-29T13:28:55.634Z,102062.34
2023-01-29T13:32:03.693Z,102047.72
2023-01-29T13:35:16.098Z,102043.16
2023-01-29T13:38:35.967Z,102039.41
2023-01-29T13:41:43.799Z,102039.13
2023-01-29T13:44:53.426Z,102043.88
2023-01-29T13:48:27.824Z,102040.66
2023-01-29T13:51:37.007Z,102030.50
2023-01-29T13:54:57.802Z,102044.47
2023-01-29T13:58:04.090Z,102046.38
2023-01-29T14:01:09.588Z,102045.28
2023-01-29T14:04:28.915Z,102038.69
2023-01-29T14:08:27.003Z,102038.75
2023-01-29T14:11:36.565Z,102026.03
2023-01-29T14:14:50.819Z,102027.84
2023-01-29T14:18:16.943Z,102035.44
2023-01-29T14:21:28.909Z,102020.78
2023-01-29T14:24:34.398Z,102028.34
2023-01-29T14:27:39.904Z,102035.09
2023-01-29T14:30:48.925Z,102030.44
2023-01-29T14:34:00.405Z,102020.91
2023-01-29T14:37:34.626Z,102019.50
2023-01-29T14:40:42.421Z,102016.00
2023-01-29T14:43:48.123Z,102017.44
2023-01-29T14:46:53.425Z,102010.75
2023-01-29T14:50:23.358Z,102018.50
2023-01-29T14:53:34.191Z,102026.63
2023-01-29T14:56:54.770Z,102012.91
2023-01-29T15:00:07.417Z,102022.41
2023-01-29T15:03:20.506Z,102020.28
2023-01-29T15:06:48.252Z,102015.09
2023-01-29T15:10:21.443Z,102016.09
2023-01-29T15:13:36.329Z,102018.59
2023-01-29T15:17:07.838Z,102021.03
2023-01-29T15:20:30.304Z,102016.88
2023-01-29T15:23:35.871Z,102019.94
2023-01-29T15:26:43.629Z,102018.28
2023-01-29T15:29:59.727Z,102011.94
2023-01-29T15:33:11.108Z,102014.63
2023-01-29T15:36:24.256Z,102003.72
2023-01-29T15:39:31.956Z,102002.16
2023-01-29T15:42:46.939Z,102005.63
2023-01-29T15:45:56.738Z,102006.34
2023-01-29T15:49:08.708Z,102011.03
2023-01-29T15:52:35.430Z,102014.19
2023-01-29T15:55:41.966Z,102013.09
2023-01-29T15:58:49.672Z,102014.59
2023-01-29T16:01:56.655Z,102016.94
2023-01-29T16:05:03.167Z,102018.44
2023-01-29T16:08:14.526Z,102017.34
2023-01-29T16:11:20.658Z,102019.19
2023-01-29T16:14:28.093Z,102019.59
2023-01-29T16:17:35.997Z,102025.38
2023-01-29T16:20:47.619Z,102017.34
2023-01-29T16:23:57.230Z,102022.28
2023-01-29T16:27:13.280Z,102023.47
2023-01-29T16:30:19.211Z,102021.16
2023-01-29T16:33:36.145Z,102021.16
2023-01-29T16:36:48.750Z,102024.47
2023-01-29T16:39:54.824Z,102021.50
2023-01-29T16:43:09.194Z,102014.09
2023-01-29T16:46:52.684Z,102012.44
2023-01-29T16:50:06.062Z,102010.47
2023-01-29T16:53:12.982Z,102013.94
2023-01-29T16:56:26.091Z,102019.09
2023-01-29T16:59:31.490Z,102021.88
2023-01-29T17:02:39.842Z,102026.34
2023-01-29T17:05:46.320Z,102033.28
2023-01-29T17:08:52.651Z,102036.91
2023-01-29T17:12:01.862Z,102037.06
2023-01-29T17:15:32.293Z,102042.50
2023-01-29T17:18:37.636Z,102039.69
2023-01-29T17:21:43.654Z,102032.91
2023-01-29T17:24:51.863Z,102034.34
2023-01-29T17:28:01.091Z,102035.34
2023-01-29T17:31:08.097Z,102034.34
2023-01-29T17:34:15.215Z,102038.00
2023-01-29T17:37:20.411Z,102037.66
2023-01-29T17:40:36.995Z,102036.31
2023-01-29T17:43:44.629Z,102044.06
2023-01-29T17:46:49.999Z,102039.91
2023-01-29T17:49:55.429Z,102033.28
2023-01-29T17:53:01.912Z,102041.09
2023-01-29T17:56:07.469Z,102043.84
2023-01-29T17:59:18.284Z,102050.63
2023-01-29T18:02:28.942Z,102046.66
2023-01-29T18:05:35.716Z,102044.31
2023-01-29T18:08:41.188Z,102043.81
2023-01-29T18:11:47.859Z,102044.25
2023-01-29T18:14:53.215Z,102032.84
2023-01-29T18:17:59.099Z,102035.81
2023-01-29T18:21:04.539Z,102039.09
2023-01-29T18:24:10.150Z,102038.56
2023-01-29T18:27:15.511Z,102030.13
2023-01-29T18:30:21.701Z,102028.97
2023-01-29T18:33:26.980Z,102030.41
2023-01-29T18:36:32.565Z,102030.94
2023-01-29T18:39:38.172Z,102025.47
2023-01-29T18:42:47.233Z,102030.63
2023-01-29T18:45:59.100Z,102027.56
2023-01-29T18:49:05.461Z,102023.97
2023-01-29T18:52:11.530Z,102025.75
2023-01-29T18:55:17.214Z,102021.16
2023-01-29T18:58:27.272Z,102016.44
2023-01-29T19:01:40.278Z,102021.41
2023-01-29T19:04:46.198Z,102018.13
2023-01-29T19:07:52.692Z,102021.31
2023-01-29T19:11:02.647Z,102023.59
2023-01-29T19:14:07.905Z,102017.47
2023-01-29T19:17:13.598Z,102019.44
2023-01-29T19:20:19.594Z,102011.06
2023-01-29T19:23:25.256Z,102012.50
2023-01-29T19:26:34.380Z,102012.63
2023-01-29T19:29:40.112Z,102010.66
2023-01-29T19:32:45.570Z,102022.59
2023-01-29T19:35:51.369Z,102013.34
2023-01-29T19:38:57.400Z,102007.84
2023-01-29T19:42:02.829Z,102009.97
2023-01-29T19:45:09.151Z,102012.28
2023-01-29T19:48:17.920Z,102015.03
2023-01-29T19:51:23.630Z,102017.72
2023-01-29T19:54:29.767Z,102017.13
2023-01-29T19:57:35.380Z,102021.72
2023-01-29T20:00:40.937Z,102018.50
2023-01-29T20:03:48.333Z,102025.88
2023-01-29T20:06:53.602Z,102024.53
2023-01-29T20:09:59.278Z,102023.69
2023-01-29T20:13:06.304Z,102026.63
2023-01-29T20:16:11.626Z,102029.03
2023-01-29T20:19:17.123Z,102036.81
2023-01-29T20:22:22.661Z,102031.91
2023-01-29T20:25:28.083Z,102031.84
2023-01-29T20:28:35.037Z,102038.06
2023-01-29T20:31:40.499Z,102028.59
2023-01-29T20:34:49.865Z,102035.22
2023-01-29T20:37:54.991Z,102030.41
2023-01-29T20:41:14.571Z,102028.66
2023-01-29T20:44:20.217Z,102015.34
2023-01-29T20:47:25.945Z,102026.94
2023-01-29T20:50:31.299Z,102023.00
2023-01-29T20:53:37.567Z,102025.84
2023-01-29T20:56:45.123Z,102023.81
2023-01-29T20:59:54.406Z,102027.69
2023-01-29T21:02:59.655Z,102028.13
2023-01-29T21:06:05.559Z,102024.19
2023-01-29T21:09:11.136Z,102024.69
2023-01-29T21:12:16.776Z,102022.78
2023-01-29T21:15:23.655Z,102019.66
2023-01-29T21:18:29.057Z,102014.44
2023-01-29T21:21:34.862Z,102018.00
2023-01-29T21:24:40.218Z,102023.06
2023-01-29T21:27:45.722Z,102020.88
2023-01-29T21:30:51.309Z,102021.94
2023-01-29T21:33:56.556Z,102020.44
2023-01-29T21:37:02.155Z,102025.41
2023-01-29T21:40:09.513Z,102019.88
2023-01-29T21:43:16.378Z,102021.03
2023-01-29T21:46:22.035Z,102021.47
2023-01-29T21:49:28.127Z,102020.63
2023-01-29T21:52:33.480Z,102020.66
2023-01-29T21:55:39.361Z,102017.47
2023-01-29T21:58:47.591Z,102012.38
2023-01-29T22:01:53.383Z,102010.09
2023-01-29T22:05:18.679Z,102012.00
2023-01-29T22:08:25.280Z,102011.94
2023-01-29T22:11:30.690Z,102003.13
2023-01-29T22:14:35.972Z,102009.53
2023-01-29T22:17:42.145Z,102002.19
2023-01-29T22:20:54.151Z,102006.81
2023-01-29T22:23:59.676Z,102003.09
2023-01-29T22:27:05.123Z,102002.81
2023-01-29T22:30:11.619Z,102001.00
2023-01-29T22:33:17.716Z,101997.13
2023-01-29T22:36:23.442Z,101988.69
2023-01-29T22:39:29.032Z,101990.16
2023-01-29T22:42:34.835Z,101989.06
2023-01-29T22:45:40.212Z,101978.63
2023-01-29T22:48:46.234Z,101987.00
2023-01-29T22:52:10.676Z,101980.13
2023-01-29T22:55:16.219Z,101989.41
2023-01-29T22:58:21.682Z,101974.75
2023-01-29T23:01:29.870Z,101977.06
2023-01-29T23:04:35.933Z,101985.22
2023-01-29T23:07:41.600Z,101982.34
2023-01-29T23:10:47.182Z,101978.88
2023-01-29T23:13:54.730Z,101985.69
2023-01-29T23:17:00.886Z,101987.19
2023-01-29T23:20:07.197Z,101986.25
2023-01-29T23:23:12.845Z,101988.31
2023-01-29T23:26:36.915Z,101982.38
2023-01-29T23:29:44.881Z,101985.41
2023-01-29T23:32:50.492Z,101978.50
2023-01-29T23:35:55.800Z,101979.56
2023-01-29T23:39:01.450Z,101985.16
2023-01-29T23:42:06.766Z,101978.88
2023-01-29T23:45:12.272Z,101978.22
2023-01-29T23:48:17.913Z,101982.81
2023-01-29T23:51:23.849Z,101975.88
2023-01-29T23:54:29.473Z,101973.28
2023-01-29T23:57:35.222Z,101961.63
